sensor_id;sensor_type;location;lat;lon;timestamp;temperature;humidity
25328;DHT22;13279;51.300;12.394;2023-07-29T00:01:03;19.50;99.90
25328;DHT22;13279;51.300;12.394;2023-07-29T00:03:30;19.40;99.90
25328;DHT22;13279;51.300;12.394;2023-07-29T00:05:58;19.40;99.90
25328;DHT22;13279;51.300;12.394;2023-07-29T00:08:27;19.40;99.90
25328;DHT22;13279;51.300;12.394;2023-07-29T00:10:55;19.30;99.90
25328;DHT22;13279;51.300;12.394;2023-07-29T00:13:22;19.30;99.90
25328;DHT22;13279;51.300;12.394;2023-07-29T00:15:50;19.30;99.90
25328;DHT22;13279;51.300;12.394;2023-07-29T00:18:17;19.30;99.90
25328;DHT22;13279;51.300;12.394;2023-07-29T00:20:45;19.20;99.90
25328;DHT22;13279;51.300;12.394;2023-07-29T00:23:12;19.20;99.90
25328;DHT22;13279;51.300;12.394;2023-07-29T00:25:41;19.20;99.90
25328;DHT22;13279;51.300;12.394;2023-07-29T00:28:09;19.10;99.90
25328;DHT22;13279;51.300;12.394;2023-07-29T00:30:37;19.10;99.90
25328;DHT22;13279;51.300;12.394;2023-07-29T00:33:05;19.10;99.90
25328;DHT22;13279;51.300;12.394;2023-07-29T00:35:32;19.10;99.90
25328;DHT22;13279;51.300;12.394;2023-07-29T00:38:00;19.00;99.90
25328;DHT22;13279;51.300;12.394;2023-07-29T00:40:28;19.00;99.90
25328;DHT22;13279;51.300;12.394;2023-07-29T00:42:57;19.00;99.90
25328;DHT22;13279;51.300;12.394;2023-07-29T00:45:25;19.00;99.90
25328;DHT22;13279;51.300;12.394;2023-07-29T00:47:54;19.00;99.90
25328;DHT22;13279;51.300;12.394;2023-07-29T00:50:21;19.00;99.90
25328;DHT22;13279;51.300;12.394;2023-07-29T00:52:49;19.10;99.90
25328;DHT22;13279;51.300;12.394;2023-07-29T00:55:17;19.10;99.90
25328;DHT22;13279;51.300;12.394;2023-07-29T00:57:45;19.10;99.90
25328;DHT22;13279;51.300;12.394;2023-07-29T01:00:16;19.20;99.90
25328;DHT22;13279;51.300;12.394;2023-07-29T01:02:43;19.20;99.90
25328;DHT22;13279;51.300;12.394;2023-07-29T01:05:13;19.30;99.90
25328;DHT22;13279;51.300;12.394;2023-07-29T01:07:47;19.30;99.90
25328;DHT22;13279;51.300;12.394;2023-07-29T01:10:23;19.30;99.90
25328;DHT22;13279;51.300;12.394;2023-07-29T01:12:59;19.30;99.90
25328;DHT22;13279;51.300;12.394;2023-07-29T01:15:35;19.30;99.90
25328;DHT22;13279;51.300;12.394;2023-07-29T01:18:05;19.40;99.90
25328;DHT22;13279;51.300;12.394;2023-07-29T01:20:39;19.40;99.90
25328;DHT22;13279;51.300;12.394;2023-07-29T01:23:07;19.30;99.90
25328;DHT22;13279;51.300;12.394;2023-07-29T01:25:36;19.30;99.90
25328;DHT22;13279;51.300;12.394;2023-07-29T01:28:05;19.20;99.90
25328;DHT22;13279;51.300;12.394;2023-07-29T01:30:39;19.20;99.90
25328;DHT22;13279;51.300;12.394;2023-07-29T01:33:14;19.10;99.90
25328;DHT22;13279;51.300;12.394;2023-07-29T01:35:48;19.10;99.90
25328;DHT22;13279;51.300;12.394;2023-07-29T01:38:18;19.10;99.90
25328;DHT22;13279;51.300;12.394;2023-07-29T01:40:50;19.10;99.90
25328;DHT22;13279;51.300;12.394;2023-07-29T01:43:18;19.10;99.90
25328;DHT22;13279;51.300;12.394;2023-07-29T01:45:51;19.10;99.90
25328;DHT22;13279;51.300;12.394;2023-07-29T01:48:19;19.10;99.90
25328;DHT22;13279;51.300;12.394;2023-07-29T01:50:48;19.10;99.90
25328;DHT22;13279;51.300;12.394;2023-07-29T01:53:16;19.20;99.90
25328;DHT22;13279;51.300;12.394;2023-07-29T01:55:44;19.20;99.90
25328;DHT22;13279;51.300;12.394;2023-07-29T01:58:13;19.20;99.90
25328;DHT22;13279;51.300;12.394;2023-07-29T02:00:45;19.30;99.90
25328;DHT22;13279;51.300;12.394;2023-07-29T02:03:13;19.30;99.90
25328;DHT22;13279;51.300;12.394;2023-07-29T02:05:40;19.30;99.90
25328;DHT22;13279;51.300;12.394;2023-07-29T02:08:10;19.30;99.90
25328;DHT22;13279;51.300;12.394;2023-07-29T02:10:38;19.30;99.90
25328;DHT22;13279;51.300;12.394;2023-07-29T02:13:05;19.30;99.90
25328;DHT22;13279;51.300;12.394;2023-07-29T02:15:34;19.30;99.90
25328;DHT22;13279;51.300;12.394;2023-07-29T02:18:02;19.30;99.90
25328;DHT22;13279;51.300;12.394;2023-07-29T02:20:30;19.30;99.90
25328;DHT22;13279;51.300;12.394;2023-07-29T02:22:57;19.30;99.90
25328;DHT22;13279;51.300;12.394;2023-07-29T02:25:25;19.40;99.90
25328;DHT22;13279;51.300;12.394;2023-07-29T02:27:53;19.30;99.90
25328;DHT22;13279;51.300;12.394;2023-07-29T02:30:20;19.30;99.90
25328;DHT22;13279;51.300;12.394;2023-07-29T02:32:50;19.30;99.90
25328;DHT22;13279;51.300;12.394;2023-07-29T02:35:17;19.20;99.90
25328;DHT22;13279;51.300;12.394;2023-07-29T02:37:45;19.20;99.90
25328;DHT22;13279;51.300;12.394;2023-07-29T02:40:12;19.20;99.90
25328;DHT22;13279;51.300;12.394;2023-07-29T02:42:40;19.20;99.90
25328;DHT22;13279;51.300;12.394;2023-07-29T02:45:08;19.10;99.90
25328;DHT22;13279;51.300;12.394;2023-07-29T02:47:36;19.10;99.90
25328;DHT22;13279;51.300;12.394;2023-07-29T02:50:08;19.10;99.90
25328;DHT22;13279;51.300;12.394;2023-07-29T02:52:36;19.10;99.90
25328;DHT22;13279;51.300;12.394;2023-07-29T02:55:04;19.00;99.90
25328;DHT22;13279;51.300;12.394;2023-07-29T02:57:32;19.00;99.90
25328;DHT22;13279;51.300;12.394;2023-07-29T02:59:59;18.90;99.90
25328;DHT22;13279;51.300;12.394;2023-07-29T03:02:27;18.90;99.90
25328;DHT22;13279;51.300;12.394;2023-07-29T03:04:54;18.80;99.90
25328;DHT22;13279;51.300;12.394;2023-07-29T03:07:23;18.80;99.90
25328;DHT22;13279;51.300;12.394;2023-07-29T03:09:51;18.80;99.90
25328;DHT22;13279;51.300;12.394;2023-07-29T03:12:18;18.80;99.90
25328;DHT22;13279;51.300;12.394;2023-07-29T03:14:47;18.70;99.90
25328;DHT22;13279;51.300;12.394;2023-07-29T03:17:15;18.70;99.90
25328;DHT22;13279;51.300;12.394;2023-07-29T03:19:42;18.80;99.90
25328;DHT22;13279;51.300;12.394;2023-07-29T03:22:10;18.70;99.90
25328;DHT22;13279;51.300;12.394;2023-07-29T03:24:38;18.70;99.90
25328;DHT22;13279;51.300;12.394;2023-07-29T03:27:06;18.70;99.90
25328;DHT22;13279;51.300;12.394;2023-07-29T03:29:35;18.60;99.90
25328;DHT22;13279;51.300;12.394;2023-07-29T03:32:04;18.60;99.90
25328;DHT22;13279;51.300;12.394;2023-07-29T03:34:31;18.60;99.90
25328;DHT22;13279;51.300;12.394;2023-07-29T03:37:00;18.60;99.90
25328;DHT22;13279;51.300;12.394;2023-07-29T03:39:27;18.60;99.90
25328;DHT22;13279;51.300;12.394;2023-07-29T03:41:56;18.60;99.90
25328;DHT22;13279;51.300;12.394;2023-07-29T03:44:23;18.60;99.90
25328;DHT22;13279;51.300;12.394;2023-07-29T03:46:52;18.50;99.90
25328;DHT22;13279;51.300;12.394;2023-07-29T03:49:19;18.50;99.90
25328;DHT22;13279;51.300;12.394;2023-07-29T03:51:47;18.50;99.90
25328;DHT22;13279;51.300;12.394;2023-07-29T03:54:14;18.50;99.90
25328;DHT22;13279;51.300;12.394;2023-07-29T03:56:42;18.40;99.90
25328;DHT22;13279;51.300;12.394;2023-07-29T03:59:10;18.40;99.90
25328;DHT22;13279;51.300;12.394;2023-07-29T04:01:38;18.40;99.90
25328;DHT22;13279;51.300;12.394;2023-07-29T04:04:05;18.30;99.90
25328;DHT22;13279;51.300;12.394;2023-07-29T04:06:33;18.30;99.90
25328;DHT22;13279;51.300;12.394;2023-07-29T04:09:00;18.30;99.90
25328;DHT22;13279;51.300;12.394;2023-07-29T04:11:28;18.30;99.90
25328;DHT22;13279;51.300;12.394;2023-07-29T04:13:55;18.20;99.90
25328;DHT22;13279;51.300;12.394;2023-07-29T04:16:24;18.30;99.90
25328;DHT22;13279;51.300;12.394;2023-07-29T04:18:52;18.30;99.90
25328;DHT22;13279;51.300;12.394;2023-07-29T04:21:20;18.30;99.90
25328;DHT22;13279;51.300;12.394;2023-07-29T04:23:47;18.30;99.90
25328;DHT22;13279;51.300;12.394;2023-07-29T04:26:15;18.30;99.90
25328;DHT22;13279;51.300;12.394;2023-07-29T04:28:42;18.30;99.90
25328;DHT22;13279;51.300;12.394;2023-07-29T04:31:10;18.30;99.90
25328;DHT22;13279;51.300;12.394;2023-07-29T04:33:38;18.30;99.90
25328;DHT22;13279;51.300;12.394;2023-07-29T04:36:06;18.40;99.90
25328;DHT22;13279;51.300;12.394;2023-07-29T04:38:36;18.40;99.90
25328;DHT22;13279;51.300;12.394;2023-07-29T04:41:04;18.50;99.90
25328;DHT22;13279;51.300;12.394;2023-07-29T04:43:33;18.50;99.90
25328;DHT22;13279;51.300;12.394;2023-07-29T04:46:01;18.50;99.90
25328;DHT22;13279;51.300;12.394;2023-07-29T04:48:28;18.60;99.90
25328;DHT22;13279;51.300;12.394;2023-07-29T04:50:58;18.60;99.90
25328;DHT22;13279;51.300;12.394;2023-07-29T04:53:25;18.70;99.90
25328;DHT22;13279;51.300;12.394;2023-07-29T04:55:52;18.70;99.90
25328;DHT22;13279;51.300;12.394;2023-07-29T04:58:20;18.80;99.90
25328;DHT22;13279;51.300;12.394;2023-07-29T05:00:47;18.90;99.90
25328;DHT22;13279;51.300;12.394;2023-07-29T05:03:14;18.90;99.90
25328;DHT22;13279;51.300;12.394;2023-07-29T05:05:42;19.00;99.90
25328;DHT22;13279;51.300;12.394;2023-07-29T05:08:11;19.00;99.90
25328;DHT22;13279;51.300;12.394;2023-07-29T05:10:39;19.10;99.90
25328;DHT22;13279;51.300;12.394;2023-07-29T05:13:06;19.20;99.90
25328;DHT22;13279;51.300;12.394;2023-07-29T05:15:34;19.20;99.90
25328;DHT22;13279;51.300;12.394;2023-07-29T05:18:01;19.30;99.90
25328;DHT22;13279;51.300;12.394;2023-07-29T05:20:29;19.30;99.90
25328;DHT22;13279;51.300;12.394;2023-07-29T05:22:56;19.40;99.90
25328;DHT22;13279;51.300;12.394;2023-07-29T05:25:25;19.50;99.90
25328;DHT22;13279;51.300;12.394;2023-07-29T05:27:52;19.50;99.90
25328;DHT22;13279;51.300;12.394;2023-07-29T05:30:20;19.60;99.90
25328;DHT22;13279;51.300;12.394;2023-07-29T05:32:47;19.70;99.90
25328;DHT22;13279;51.300;12.394;2023-07-29T05:35:15;19.70;99.90
25328;DHT22;13279;51.300;12.394;2023-07-29T05:37:42;19.80;99.90
25328;DHT22;13279;51.300;12.394;2023-07-29T05:40:09;19.80;99.90
25328;DHT22;13279;51.300;12.394;2023-07-29T05:42:40;19.80;99.90
25328;DHT22;13279;51.300;12.394;2023-07-29T05:45:08;19.90;99.90
25328;DHT22;13279;51.300;12.394;2023-07-29T05:47:36;19.90;99.90
25328;DHT22;13279;51.300;12.394;2023-07-29T05:50:05;20.00;99.90
25328;DHT22;13279;51.300;12.394;2023-07-29T05:52:33;20.10;99.90
25328;DHT22;13279;51.300;12.394;2023-07-29T05:55:00;20.10;99.90
25328;DHT22;13279;51.300;12.394;2023-07-29T05:57:29;20.30;99.90
25328;DHT22;13279;51.300;12.394;2023-07-29T05:59:58;20.40;99.90
25328;DHT22;13279;51.300;12.394;2023-07-29T06:02:26;20.50;99.90
25328;DHT22;13279;51.300;12.394;2023-07-29T06:04:54;20.60;99.90
25328;DHT22;13279;51.300;12.394;2023-07-29T06:07:21;20.80;99.90
25328;DHT22;13279;51.300;12.394;2023-07-29T06:09:50;20.90;99.90
25328;DHT22;13279;51.300;12.394;2023-07-29T06:12:19;21.00;99.90
25328;DHT22;13279;51.300;12.394;2023-07-29T06:14:47;21.20;99.90
25328;DHT22;13279;51.300;12.394;2023-07-29T06:17:16;21.30;99.90
25328;DHT22;13279;51.300;12.394;2023-07-29T06:19:44;21.40;99.90
25328;DHT22;13279;51.300;12.394;2023-07-29T06:22:11;21.30;99.90
25328;DHT22;13279;51.300;12.394;2023-07-29T06:24:39;21.20;99.90
25328;DHT22;13279;51.300;12.394;2023-07-29T06:27:06;21.30;99.90
25328;DHT22;13279;51.300;12.394;2023-07-29T06:29:34;21.30;99.90
25328;DHT22;13279;51.300;12.394;2023-07-29T06:32:01;21.40;99.90
25328;DHT22;13279;51.300;12.394;2023-07-29T06:34:31;21.40;99.90
25328;DHT22;13279;51.300;12.394;2023-07-29T06:36:58;21.60;99.90
25328;DHT22;13279;51.300;12.394;2023-07-29T06:39:25;21.70;99.90
25328;DHT22;13279;51.300;12.394;2023-07-29T06:41:52;21.70;99.90
25328;DHT22;13279;51.300;12.394;2023-07-29T06:44:20;21.90;99.90
25328;DHT22;13279;51.300;12.394;2023-07-29T06:46:47;22.20;67.50
25328;DHT22;13279;51.300;12.394;2023-07-29T06:49:15;22.40;48.70
25328;DHT22;13279;51.300;12.394;2023-07-29T06:51:44;22.60;2.00
25328;DHT22;13279;51.300;12.394;2023-07-29T06:54:11;22.70;1.00
25328;DHT22;13279;51.300;12.394;2023-07-29T06:56:38;22.50;1.00
25328;DHT22;13279;51.300;12.394;2023-07-29T06:59:06;22.60;1.00
25328;DHT22;13279;51.300;12.394;2023-07-29T07:01:34;22.60;1.00
25328;DHT22;13279;51.300;12.394;2023-07-29T07:04:01;22.80;1.00
25328;DHT22;13279;51.300;12.394;2023-07-29T07:06:28;23.00;1.00
25328;DHT22;13279;51.300;12.394;2023-07-29T07:08:57;23.30;1.00
25328;DHT22;13279;51.300;12.394;2023-07-29T07:11:25;23.50;1.00
25328;DHT22;13279;51.300;12.394;2023-07-29T07:13:52;23.60;1.00
25328;DHT22;13279;51.300;12.394;2023-07-29T07:16:20;23.80;1.00
25328;DHT22;13279;51.300;12.394;2023-07-29T07:18:47;23.70;1.00
25328;DHT22;13279;51.300;12.394;2023-07-29T07:21:14;23.60;1.00
25328;DHT22;13279;51.300;12.394;2023-07-29T07:23:42;23.90;1.00
25328;DHT22;13279;51.300;12.394;2023-07-29T07:26:11;23.80;1.00
25328;DHT22;13279;51.300;12.394;2023-07-29T07:28:38;23.50;1.00
25328;DHT22;13279;51.300;12.394;2023-07-29T07:31:05;23.50;1.00
25328;DHT22;13279;51.300;12.394;2023-07-29T07:33:33;23.60;1.00
25328;DHT22;13279;51.300;12.394;2023-07-29T07:36:00;23.70;1.00
25328;DHT22;13279;51.300;12.394;2023-07-29T07:38:28;23.60;1.00
25328;DHT22;13279;51.300;12.394;2023-07-29T07:40:56;23.30;1.00
25328;DHT22;13279;51.300;12.394;2023-07-29T07:43:25;23.20;1.00
25328;DHT22;13279;51.300;12.394;2023-07-29T07:45:58;23.30;1.00
25328;DHT22;13279;51.300;12.394;2023-07-29T07:48:26;23.20;1.00
25328;DHT22;13279;51.300;12.394;2023-07-29T07:50:53;23.10;1.00
25328;DHT22;13279;51.300;12.394;2023-07-29T07:53:21;23.20;1.00
25328;DHT22;13279;51.300;12.394;2023-07-29T07:55:48;23.20;1.00
25328;DHT22;13279;51.300;12.394;2023-07-29T07:58:16;23.20;1.00
25328;DHT22;13279;51.300;12.394;2023-07-29T08:00:44;23.20;1.00
25328;DHT22;13279;51.300;12.394;2023-07-29T08:03:12;23.10;1.00
25328;DHT22;13279;51.300;12.394;2023-07-29T08:05:39;23.10;1.00
25328;DHT22;13279;51.300;12.394;2023-07-29T08:08:07;23.20;1.00
25328;DHT22;13279;51.300;12.394;2023-07-29T08:10:34;23.30;1.00
25328;DHT22;13279;51.300;12.394;2023-07-29T08:13:00;23.30;1.00
25328;DHT22;13279;51.300;12.394;2023-07-29T08:15:28;23.40;1.00
25328;DHT22;13279;51.300;12.394;2023-07-29T08:17:57;23.30;1.00
25328;DHT22;13279;51.300;12.394;2023-07-29T08:20:24;23.20;1.00
25328;DHT22;13279;51.300;12.394;2023-07-29T08:22:51;23.10;1.00
25328;DHT22;13279;51.300;12.394;2023-07-29T08:25:19;23.10;1.00
25328;DHT22;13279;51.300;12.394;2023-07-29T08:27:46;23.10;1.00
25328;DHT22;13279;51.300;12.394;2023-07-29T08:30:13;23.00;1.00
25328;DHT22;13279;51.300;12.394;2023-07-29T08:32:42;23.00;1.00
25328;DHT22;13279;51.300;12.394;2023-07-29T08:35:11;23.10;1.00
25328;DHT22;13279;51.300;12.394;2023-07-29T08:37:39;23.20;1.00
25328;DHT22;13279;51.300;12.394;2023-07-29T08:40:07;23.20;1.00
25328;DHT22;13279;51.300;12.394;2023-07-29T08:42:37;23.20;1.00
25328;DHT22;13279;51.300;12.394;2023-07-29T08:45:07;23.40;1.00
25328;DHT22;13279;51.300;12.394;2023-07-29T08:47:34;23.60;1.00
25328;DHT22;13279;51.300;12.394;2023-07-29T08:50:03;23.60;1.00
25328;DHT22;13279;51.300;12.394;2023-07-29T08:52:32;23.60;1.00
25328;DHT22;13279;51.300;12.394;2023-07-29T08:55:01;23.60;1.00
25328;DHT22;13279;51.300;12.394;2023-07-29T08:57:28;23.60;1.00
25328;DHT22;13279;51.300;12.394;2023-07-29T08:59:58;23.60;1.00
25328;DHT22;13279;51.300;12.394;2023-07-29T09:02:25;23.70;1.00
25328;DHT22;13279;51.300;12.394;2023-07-29T09:04:53;23.90;1.00
25328;DHT22;13279;51.300;12.394;2023-07-29T09:07:20;24.30;1.00
25328;DHT22;13279;51.300;12.394;2023-07-29T09:09:49;24.40;1.00
25328;DHT22;13279;51.300;12.394;2023-07-29T09:12:16;24.40;1.00
25328;DHT22;13279;51.300;12.394;2023-07-29T09:14:44;24.20;1.00
25328;DHT22;13279;51.300;12.394;2023-07-29T09:17:11;24.20;1.00
25328;DHT22;13279;51.300;12.394;2023-07-29T09:19:39;24.20;1.00
25328;DHT22;13279;51.300;12.394;2023-07-29T09:22:17;24.30;1.00
25328;DHT22;13279;51.300;12.394;2023-07-29T09:24:46;24.20;1.00
25328;DHT22;13279;51.300;12.394;2023-07-29T09:27:25;24.10;1.00
25328;DHT22;13279;51.300;12.394;2023-07-29T09:29:53;24.10;1.00
25328;DHT22;13279;51.300;12.394;2023-07-29T09:32:22;24.20;1.00
25328;DHT22;13279;51.300;12.394;2023-07-29T09:34:49;24.30;1.00
25328;DHT22;13279;51.300;12.394;2023-07-29T09:37:17;24.20;1.00
25328;DHT22;13279;51.300;12.394;2023-07-29T09:39:45;24.20;1.00
25328;DHT22;13279;51.300;12.394;2023-07-29T09:42:17;23.80;1.00
25328;DHT22;13279;51.300;12.394;2023-07-29T09:44:49;23.90;1.00
25328;DHT22;13279;51.300;12.394;2023-07-29T09:47:20;23.90;1.00
25328;DHT22;13279;51.300;12.394;2023-07-29T09:49:49;23.90;1.00
25328;DHT22;13279;51.300;12.394;2023-07-29T09:52:16;23.70;1.00
25328;DHT22;13279;51.300;12.394;2023-07-29T09:54:44;23.70;1.00
25328;DHT22;13279;51.300;12.394;2023-07-29T09:57:13;23.60;1.00
25328;DHT22;13279;51.300;12.394;2023-07-29T09:59:42;23.60;1.00
25328;DHT22;13279;51.300;12.394;2023-07-29T10:02:15;23.60;1.00
25328;DHT22;13279;51.300;12.394;2023-07-29T10:04:44;23.70;1.00
25328;DHT22;13279;51.300;12.394;2023-07-29T10:07:12;23.80;1.00
25328;DHT22;13279;51.300;12.394;2023-07-29T10:09:40;23.90;1.00
25328;DHT22;13279;51.300;12.394;2023-07-29T10:12:08;23.90;1.00
25328;DHT22;13279;51.300;12.394;2023-07-29T10:14:38;23.70;1.00
25328;DHT22;13279;51.300;12.394;2023-07-29T10:17:05;23.80;1.00
25328;DHT22;13279;51.300;12.394;2023-07-29T10:19:36;23.60;1.00
25328;DHT22;13279;51.300;12.394;2023-07-29T10:22:04;23.70;1.00
25328;DHT22;13279;51.300;12.394;2023-07-29T10:24:33;23.80;1.00
25328;DHT22;13279;51.300;12.394;2023-07-29T10:27:02;23.70;1.00
25328;DHT22;13279;51.300;12.394;2023-07-29T10:29:31;23.70;1.00
25328;DHT22;13279;51.300;12.394;2023-07-29T10:32:02;23.50;1.00
25328;DHT22;13279;51.300;12.394;2023-07-29T10:34:31;23.40;1.00
25328;DHT22;13279;51.300;12.394;2023-07-29T10:37:00;22.60;99.90
25328;DHT22;13279;51.300;12.394;2023-07-29T10:39:37;21.60;99.90
25328;DHT22;13279;51.300;12.394;2023-07-29T10:42:06;21.00;99.90
25328;DHT22;13279;51.300;12.394;2023-07-29T10:44:47;20.90;99.90
25328;DHT22;13279;51.300;12.394;2023-07-29T10:47:15;21.00;99.90
25328;DHT22;13279;51.300;12.394;2023-07-29T10:49:43;21.30;99.90
25328;DHT22;13279;51.300;12.394;2023-07-29T10:52:15;21.70;99.90
25328;DHT22;13279;51.300;12.394;2023-07-29T10:54:43;22.20;99.90
25328;DHT22;13279;51.300;12.394;2023-07-29T10:57:14;22.50;99.90
25328;DHT22;13279;51.300;12.394;2023-07-29T10:59:54;22.70;99.90
25328;DHT22;13279;51.300;12.394;2023-07-29T11:02:28;22.80;99.90
25328;DHT22;13279;51.300;12.394;2023-07-29T11:04:56;22.90;99.90
25328;DHT22;13279;51.300;12.394;2023-07-29T11:07:28;22.90;99.90
25328;DHT22;13279;51.300;12.394;2023-07-29T11:10:00;22.80;99.90
25328;DHT22;13279;51.300;12.394;2023-07-29T11:12:40;22.90;99.90
25328;DHT22;13279;51.300;12.394;2023-07-29T11:15:16;22.90;99.90
25328;DHT22;13279;51.300;12.394;2023-07-29T11:17:45;23.00;99.90
25328;DHT22;13279;51.300;12.394;2023-07-29T11:20:14;23.20;99.90
25328;DHT22;13279;51.300;12.394;2023-07-29T11:22:43;23.50;99.90
25328;DHT22;13279;51.300;12.394;2023-07-29T11:25:12;23.70;99.90
25328;DHT22;13279;51.300;12.394;2023-07-29T11:27:40;23.70;99.90
25328;DHT22;13279;51.300;12.394;2023-07-29T11:30:09;23.60;99.90
25328;DHT22;13279;51.300;12.394;2023-07-29T11:32:37;23.60;99.90
25328;DHT22;13279;51.300;12.394;2023-07-29T11:35:06;23.60;99.90
25328;DHT22;13279;51.300;12.394;2023-07-29T11:37:35;23.70;99.90
25328;DHT22;13279;51.300;12.394;2023-07-29T11:40:04;24.00;99.90
25328;DHT22;13279;51.300;12.394;2023-07-29T11:42:33;24.20;99.90
25328;DHT22;13279;51.300;12.394;2023-07-29T11:45:01;24.40;99.90
25328;DHT22;13279;51.300;12.394;2023-07-29T11:47:29;24.50;99.90
25328;DHT22;13279;51.300;12.394;2023-07-29T11:49:59;24.50;99.90
25328;DHT22;13279;51.300;12.394;2023-07-29T11:52:27;24.30;99.90
25328;DHT22;13279;51.300;12.394;2023-07-29T11:54:55;24.30;99.90
25328;DHT22;13279;51.300;12.394;2023-07-29T11:57:24;24.50;99.90
25328;DHT22;13279;51.300;12.394;2023-07-29T11:59:53;24.50;99.90
25328;DHT22;13279;51.300;12.394;2023-07-29T12:02:21;24.50;99.90
25328;DHT22;13279;51.300;12.394;2023-07-29T12:04:50;24.50;99.90
25328;DHT22;13279;51.300;12.394;2023-07-29T12:07:18;24.60;99.90
25328;DHT22;13279;51.300;12.394;2023-07-29T12:09:46;24.50;99.90
25328;DHT22;13279;51.300;12.394;2023-07-29T12:12:15;24.30;99.90
25328;DHT22;13279;51.300;12.394;2023-07-29T12:14:45;24.20;99.90
25328;DHT22;13279;51.300;12.394;2023-07-29T12:17:13;24.20;99.90
25328;DHT22;13279;51.300;12.394;2023-07-29T12:19:41;24.00;99.90
25328;DHT22;13279;51.300;12.394;2023-07-29T12:22:10;24.10;99.90
25328;DHT22;13279;51.300;12.394;2023-07-29T12:24:38;24.20;99.90
25328;DHT22;13279;51.300;12.394;2023-07-29T12:27:10;24.20;99.90
25328;DHT22;13279;51.300;12.394;2023-07-29T12:29:42;24.20;99.90
25328;DHT22;13279;51.300;12.394;2023-07-29T12:32:11;24.20;99.90
25328;DHT22;13279;51.300;12.394;2023-07-29T12:34:40;24.30;99.90
25328;DHT22;13279;51.300;12.394;2023-07-29T12:37:07;24.40;99.90
25328;DHT22;13279;51.300;12.394;2023-07-29T12:39:40;24.20;99.90
25328;DHT22;13279;51.300;12.394;2023-07-29T12:42:07;24.30;99.90
25328;DHT22;13279;51.300;12.394;2023-07-29T12:44:37;24.60;99.90
25328;DHT22;13279;51.300;12.394;2023-07-29T12:47:06;24.70;99.90
25328;DHT22;13279;51.300;12.394;2023-07-29T12:49:35;24.60;99.90
25328;DHT22;13279;51.300;12.394;2023-07-29T12:52:03;24.50;99.90
25328;DHT22;13279;51.300;12.394;2023-07-29T12:54:30;24.40;99.90
25328;DHT22;13279;51.300;12.394;2023-07-29T12:56:58;24.50;99.90
25328;DHT22;13279;51.300;12.394;2023-07-29T12:59:25;24.60;99.90
25328;DHT22;13279;51.300;12.394;2023-07-29T13:01:53;24.70;99.90
25328;DHT22;13279;51.300;12.394;2023-07-29T13:04:20;24.90;99.90
25328;DHT22;13279;51.300;12.394;2023-07-29T13:06:49;25.10;99.90
25328;DHT22;13279;51.300;12.394;2023-07-29T13:09:16;25.20;99.90
25328;DHT22;13279;51.300;12.394;2023-07-29T13:11:44;25.20;99.90
25328;DHT22;13279;51.300;12.394;2023-07-29T13:14:11;25.20;99.90
25328;DHT22;13279;51.300;12.394;2023-07-29T13:16:39;25.10;99.90
25328;DHT22;13279;51.300;12.394;2023-07-29T13:19:06;25.10;99.90
25328;DHT22;13279;51.300;12.394;2023-07-29T13:21:34;25.20;99.90
25328;DHT22;13279;51.300;12.394;2023-07-29T13:24:02;25.50;99.90
25328;DHT22;13279;51.300;12.394;2023-07-29T13:26:30;26.10;99.90
25328;DHT22;13279;51.300;12.394;2023-07-29T13:28:57;26.70;99.90
25328;DHT22;13279;51.300;12.394;2023-07-29T13:31:25;27.00;99.90
25328;DHT22;13279;51.300;12.394;2023-07-29T13:33:52;27.20;99.90
25328;DHT22;13279;51.300;12.394;2023-07-29T13:36:20;27.10;99.90
25328;DHT22;13279;51.300;12.394;2023-07-29T13:38:47;26.70;99.90
25328;DHT22;13279;51.300;12.394;2023-07-29T13:41:16;26.40;99.90
25328;DHT22;13279;51.300;12.394;2023-07-29T13:43:43;26.60;99.90
25328;DHT22;13279;51.300;12.394;2023-07-29T13:46:11;27.50;99.90
25328;DHT22;13279;51.300;12.394;2023-07-29T13:48:38;27.40;99.90
25328;DHT22;13279;51.300;12.394;2023-07-29T13:51:05;26.90;99.90
25328;DHT22;13279;51.300;12.394;2023-07-29T13:53:33;27.40;99.90
25328;DHT22;13279;51.300;12.394;2023-07-29T13:56:00;28.20;99.90
25328;DHT22;13279;51.300;12.394;2023-07-29T13:58:29;28.50;99.90
25328;DHT22;13279;51.300;12.394;2023-07-29T14:00:56;28.50;1.00
25328;DHT22;13279;51.300;12.394;2023-07-29T14:03:24;27.90;1.00
25328;DHT22;13279;51.300;12.394;2023-07-29T14:05:51;28.00;99.90
25328;DHT22;13279;51.300;12.394;2023-07-29T14:08:18;27.80;33.40
25328;DHT22;13279;51.300;12.394;2023-07-29T14:10:46;27.40;1.00
25328;DHT22;13279;51.300;12.394;2023-07-29T14:13:13;27.30;1.00
25328;DHT22;13279;51.300;12.394;2023-07-29T14:15:43;27.60;1.00
25328;DHT22;13279;51.300;12.394;2023-07-29T14:18:10;27.70;1.00
25328;DHT22;13279;51.300;12.394;2023-07-29T14:20:38;27.30;58.30
25328;DHT22;13279;51.300;12.394;2023-07-29T14:23:05;26.80;15.00
25328;DHT22;13279;51.300;12.394;2023-07-29T14:25:33;26.60;10.00
25328;DHT22;13279;51.300;12.394;2023-07-29T14:28:00;26.30;99.90
25328;DHT22;13279;51.300;12.394;2023-07-29T14:30:28;26.00;99.90
25328;DHT22;13279;51.300;12.394;2023-07-29T14:32:57;25.80;99.90
25328;DHT22;13279;51.300;12.394;2023-07-29T14:35:24;25.70;99.90
25328;DHT22;13279;51.300;12.394;2023-07-29T14:37:52;25.60;99.90
25328;DHT22;13279;51.300;12.394;2023-07-29T14:40:19;25.60;99.90
25328;DHT22;13279;51.300;12.394;2023-07-29T14:42:46;25.50;99.90
25328;DHT22;13279;51.300;12.394;2023-07-29T14:45:14;25.50;99.90
25328;DHT22;13279;51.300;12.394;2023-07-29T14:47:41;25.50;99.90
25328;DHT22;13279;51.300;12.394;2023-07-29T14:50:10;25.30;99.90
25328;DHT22;13279;51.300;12.394;2023-07-29T14:52:38;24.70;3.10
25328;DHT22;13279;51.300;12.394;2023-07-29T14:55:06;23.70;99.90
25328;DHT22;13279;51.300;12.394;2023-07-29T14:57:33;22.60;99.90
25328;DHT22;13279;51.300;12.394;2023-07-29T15:00:01;21.90;99.90
25328;DHT22;13279;51.300;12.394;2023-07-29T15:02:29;21.60;99.90
25328;DHT22;13279;51.300;12.394;2023-07-29T15:04:57;21.40;99.90
25328;DHT22;13279;51.300;12.394;2023-07-29T15:07:25;21.00;99.90
25328;DHT22;13279;51.300;12.394;2023-07-29T15:09:53;20.60;99.90
25328;DHT22;13279;51.300;12.394;2023-07-29T15:12:20;20.20;99.90
25328;DHT22;13279;51.300;12.394;2023-07-29T15:14:48;19.90;99.90
25328;DHT22;13279;51.300;12.394;2023-07-29T15:17:15;19.60;99.90
25328;DHT22;13279;51.300;12.394;2023-07-29T15:19:43;19.30;99.90
25328;DHT22;13279;51.300;12.394;2023-07-29T15:22:10;19.00;99.90
25328;DHT22;13279;51.300;12.394;2023-07-29T15:24:39;18.80;99.90
25328;DHT22;13279;51.300;12.394;2023-07-29T15:27:09;18.70;99.90